sensor_id;sensor_type;location;lat;lon;timestamp;pressure;altitude;pressure_sealevel;temperature;humidity
46954;BME280;32707;43.886;12.874;2022-07-22T00:00:07;101362.28;;;24.03;49.50
46954;BME280;32707;43.886;12.874;2022-07-22T00:02:34;101356.56;;;24.03;49.51
46954;BME280;32707;43.886;12.874;2022-07-22T00:05:00;101356.56;;;23.99;49.79
46954;BME280;32707;43.886;12.874;2022-07-22T00:07:25;101364.31;;;23.99;49.94
46954;BME280;32707;43.886;12.874;2022-07-22T00:09:51;101367.16;;;23.95;49.99
46954;BME280;32707;43.886;12.874;2022-07-22T00:12:16;101367.53;;;23.90;49.98
46954;BME280;32707;43.886;12.874;2022-07-22T00:14:42;101365.44;;;23.83;50.15
46954;BME280;32707;43.886;12.874;2022-07-22T00:17:07;101361.69;;;23.76;50.33
46954;BME280;32707;43.886;12.874;2022-07-22T00:19:33;101367.38;;;23.72;50.42
46954;BME280;32707;43.886;12.874;2022-07-22T00:21:59;101367.00;;;23.74;50.49
46954;BME280;32707;43.886;12.874;2022-07-22T00:24:24;101364.94;;;23.74;50.41
46954;BME280;32707;43.886;12.874;2022-07-22T00:26:49;101359.22;;;23.74;50.44
46954;BME280;32707;43.886;12.874;2022-07-22T00:29:15;101367.00;;;23.74;50.50
46954;BME280;32707;43.886;12.874;2022-07-22T00:31:41;101360.44;;;23.70;50.65
46954;BME280;32707;43.886;12.874;2022-07-22T00:34:06;101357.56;;;23.66;50.81
46954;BME280;32707;43.886;12.874;2022-07-22T00:36:32;101354.69;;;23.62;50.73
46954;BME280;32707;43.886;12.874;2022-07-22T00:38:59;101348.13;;;23.58;51.14
46954;BME280;32707;43.886;12.874;2022-07-22T00:41:28;101353.41;;;23.56;51.16
46954;BME280;32707;43.886;12.874;2022-07-22T00:44:05;101351.75;;;23.55;50.97
46954;BME280;32707;43.886;12.874;2022-07-22T00:46:33;101350.56;;;23.56;51.23
46954;BME280;32707;43.886;12.874;2022-07-22T00:48:59;101352.59;;;23.56;51.00
46954;BME280;32707;43.886;12.874;2022-07-22T00:51:26;101350.94;;;23.55;51.00
46954;BME280;32707;43.886;12.874;2022-07-22T00:53:54;101355.81;;;23.51;51.03
46954;BME280;32707;43.886;12.874;2022-07-22T00:56:20;101352.50;;;23.41;51.05
46954;BME280;32707;43.886;12.874;2022-07-22T00:58:47;101354.06;;;23.32;51.21
46954;BME280;32707;43.886;12.874;2022-07-22T01:01:14;101358.47;;;23.25;51.29
46954;BME280;32707;43.886;12.874;2022-07-22T01:03:40;101357.59;;;23.18;51.35
46954;BME280;32707;43.886;12.874;2022-07-22T01:06:06;101361.66;;;23.13;51.38
46954;BME280;32707;43.886;12.874;2022-07-22T01:08:32;101356.34;;;23.12;51.48
46954;BME280;32707;43.886;12.874;2022-07-22T01:11:12;101350.63;;;23.12;51.44
46954;BME280;32707;43.886;12.874;2022-07-22T01:13:38;101361.66;;;23.13;51.55
46954;BME280;32707;43.886;12.874;2022-07-22T01:16:05;101358.38;;;23.11;51.59
46954;BME280;32707;43.886;12.874;2022-07-22T01:18:31;101364.91;;;23.12;51.55
46954;BME280;32707;43.886;12.874;2022-07-22T01:20:57;101356.34;;;23.12;51.62
46954;BME280;32707;43.886;12.874;2022-07-22T01:23:23;101355.94;;;23.13;51.79
46954;BME280;32707;43.886;12.874;2022-07-22T01:25:49;101360.00;;;23.12;51.60
46954;BME280;32707;43.886;12.874;2022-07-22T01:28:15;101357.16;;;23.12;51.52
46954;BME280;32707;43.886;12.874;2022-07-22T01:30:40;101351.84;;;23.11;51.53
46954;BME280;32707;43.886;12.874;2022-07-22T01:33:06;101354.63;;;23.03;51.59
46954;BME280;32707;43.886;12.874;2022-07-22T01:35:31;101353.75;;;22.99;51.86
46954;BME280;32707;43.886;12.874;2022-07-22T01:37:57;101354.97;;;22.98;51.75
46954;BME280;32707;43.886;12.874;2022-07-22T01:40:22;101359.47;;;22.99;51.77
46954;BME280;32707;43.886;12.874;2022-07-22T01:42:48;101346.78;;;22.97;51.52
46954;BME280;32707;43.886;12.874;2022-07-22T01:45:13;101348.03;;;22.96;51.56
46954;BME280;32707;43.886;12.874;2022-07-22T01:47:39;101337.81;;;22.95;51.42
46954;BME280;32707;43.886;12.874;2022-07-22T01:50:08;101343.13;;;22.96;51.37
46954;BME280;32707;43.886;12.874;2022-07-22T01:52:34;101339.47;;;22.96;51.35
46954;BME280;32707;43.886;12.874;2022-07-22T01:55:00;101352.09;;;22.98;51.14
46954;BME280;32707;43.886;12.874;2022-07-22T01:57:25;101343.97;;;23.00;51.09
46954;BME280;32707;43.886;12.874;2022-07-22T01:59:51;101346.94;;;23.07;50.71
46954;BME280;32707;43.886;12.874;2022-07-22T02:02:16;101334.72;;;23.14;50.48
46954;BME280;32707;43.886;12.874;2022-07-22T02:04:42;101335.19;;;23.20;50.33
46954;BME280;32707;43.886;12.874;2022-07-22T02:07:08;101339.31;;;23.22;50.06
46954;BME280;32707;43.886;12.874;2022-07-22T02:09:33;101349.13;;;23.28;49.93
46954;BME280;32707;43.886;12.874;2022-07-22T02:11:59;101347.94;;;23.29;49.78
46954;BME280;32707;43.886;12.874;2022-07-22T02:14:24;101341.78;;;23.27;49.60
46954;BME280;32707;43.886;12.874;2022-07-22T02:16:50;101342.19;;;23.26;49.58
46954;BME280;32707;43.886;12.874;2022-07-22T02:19:15;101344.19;;;23.25;49.47
46954;BME280;32707;43.886;12.874;2022-07-22T02:21:41;101343.00;;;23.26;49.56
46954;BME280;32707;43.886;12.874;2022-07-22T02:24:06;101344.19;;;23.22;49.50
46954;BME280;32707;43.886;12.874;2022-07-22T02:26:32;101338.44;;;23.15;49.67
46954;BME280;32707;43.886;12.874;2022-07-22T02:28:57;101344.50;;;23.09;49.87
46954;BME280;32707;43.886;12.874;2022-07-22T02:31:23;101339.91;;;23.01;49.92
46954;BME280;32707;43.886;12.874;2022-07-22T02:33:49;101334.97;;;22.95;50.03
46954;BME280;32707;43.886;12.874;2022-07-22T02:36:15;101339.81;;;22.90;50.11
46954;BME280;32707;43.886;12.874;2022-07-22T02:38:40;101336.50;;;22.85;50.16
46954;BME280;32707;43.886;12.874;2022-07-22T02:41:06;101340.94;;;22.82;50.09
46954;BME280;32707;43.886;12.874;2022-07-22T02:43:31;101350.69;;;22.78;50.43
46954;BME280;32707;43.886;12.874;2022-07-22T02:45:57;101346.59;;;22.75;50.24
46954;BME280;32707;43.886;12.874;2022-07-22T02:48:22;101341.28;;;22.74;50.32
46954;BME280;32707;43.886;12.874;2022-07-22T02:50:48;101335.19;;;22.75;50.26
46954;BME280;32707;43.886;12.874;2022-07-22T02:53:14;101334.81;;;22.80;50.05
46954;BME280;32707;43.886;12.874;2022-07-22T02:55:40;101340.97;;;22.86;49.98
46954;BME280;32707;43.886;12.874;2022-07-22T02:58:07;101329.22;;;22.91;49.76
46954;BME280;32707;43.886;12.874;2022-07-22T03:00:34;101337.38;;;22.93;49.84
46954;BME280;32707;43.886;12.874;2022-07-22T03:02:59;101340.59;;;22.87;49.61
46954;BME280;32707;43.886;12.874;2022-07-22T03:05:25;101343.44;;;22.87;49.79
46954;BME280;32707;43.886;12.874;2022-07-22T03:07:50;101341.81;;;22.86;49.93
46954;BME280;32707;43.886;12.874;2022-07-22T03:10:16;101346.22;;;22.80;49.79
46954;BME280;32707;43.886;12.874;2022-07-22T03:12:41;101352.31;;;22.75;49.80
46954;BME280;32707;43.886;12.874;2022-07-22T03:15:07;101349.81;;;22.70;50.04
46954;BME280;32707;43.886;12.874;2022-07-22T03:17:34;101349.38;;;22.68;50.19
46954;BME280;32707;43.886;12.874;2022-07-22T03:20:02;101344.06;;;22.66;50.03
46954;BME280;32707;43.886;12.874;2022-07-22T03:22:28;101355.47;;;22.66;50.19
46954;BME280;32707;43.886;12.874;2022-07-22T03:24:53;101358.75;;;22.68;50.00
46954;BME280;32707;43.886;12.874;2022-07-22T03:27:19;101361.22;;;22.70;49.90
46954;BME280;32707;43.886;12.874;2022-07-22T03:29:44;101358.78;;;22.72;49.90
46954;BME280;32707;43.886;12.874;2022-07-22T03:32:10;101363.28;;;22.73;49.97
46954;BME280;32707;43.886;12.874;2022-07-22T03:34:35;101364.09;;;22.74;49.80
46954;BME280;32707;43.886;12.874;2022-07-22T03:37:01;101364.91;;;22.74;49.73
46954;BME280;32707;43.886;12.874;2022-07-22T03:39:27;101354.75;;;22.77;49.80
46954;BME280;32707;43.886;12.874;2022-07-22T03:41:53;101361.69;;;22.76;49.88
46954;BME280;32707;43.886;12.874;2022-07-22T03:44:18;101362.50;;;22.76;49.90
46954;BME280;32707;43.886;12.874;2022-07-22T03:46:44;101366.94;;;22.74;49.92
46954;BME280;32707;43.886;12.874;2022-07-22T03:49:09;101360.78;;;22.68;49.99
46954;BME280;32707;43.886;12.874;2022-07-22T03:51:35;101356.66;;;22.65;50.21
46954;BME280;32707;43.886;12.874;2022-07-22T03:54:00;101366.44;;;22.64;50.29
46954;BME280;32707;43.886;12.874;2022-07-22T03:56:26;101359.88;;;22.60;50.28
46954;BME280;32707;43.886;12.874;2022-07-22T03:58:51;101362.31;;;22.58;50.46
46954;BME280;32707;43.886;12.874;2022-07-22T04:01:16;101369.22;;;22.57;50.49
46954;BME280;32707;43.886;12.874;2022-07-22T04:03:42;101363.91;;;22.56;50.41
46954;BME280;32707;43.886;12.874;2022-07-22T04:06:08;101363.47;;;22.54;50.49
46954;BME280;32707;43.886;12.874;2022-07-22T04:08:33;101361.84;;;22.52;50.45
46954;BME280;32707;43.886;12.874;2022-07-22T04:10:59;101369.97;;;22.54;50.67
46954;BME280;32707;43.886;12.874;2022-07-22T04:13:24;101363.09;;;22.55;50.53
46954;BME280;32707;43.886;12.874;2022-07-22T04:15:50;101370.03;;;22.58;50.57
46954;BME280;32707;43.886;12.874;2022-07-22T04:18:15;101370.44;;;22.60;50.63
46954;BME280;32707;43.886;12.874;2022-07-22T04:20:43;101369.69;;;22.63;50.55
46954;BME280;32707;43.886;12.874;2022-07-22T04:23:08;101376.66;;;22.69;50.38
46954;BME280;32707;43.886;12.874;2022-07-22T04:25:34;101373.91;;;22.76;50.44
46954;BME280;32707;43.886;12.874;2022-07-22T04:28:00;101380.88;;;22.82;50.32
46954;BME280;32707;43.886;12.874;2022-07-22T04:30:25;101379.34;;;22.88;50.12
46954;BME280;32707;43.886;12.874;2022-07-22T04:32:51;101383.50;;;22.98;49.95
46954;BME280;32707;43.886;12.874;2022-07-22T04:35:16;101372.59;;;23.07;49.93
46954;BME280;32707;43.886;12.874;2022-07-22T04:37:42;101367.81;;;23.19;49.61
46954;BME280;32707;43.886;12.874;2022-07-22T04:40:08;101369.97;;;23.33;49.42
46954;BME280;32707;43.886;12.874;2022-07-22T04:42:34;101372.09;;;23.43;49.18
46954;BME280;32707;43.886;12.874;2022-07-22T04:44:59;101385.63;;;23.53;48.96
46954;BME280;32707;43.886;12.874;2022-07-22T04:47:25;101378.75;;;23.61;48.93
46954;BME280;32707;43.886;12.874;2022-07-22T04:49:50;101381.66;;;23.72;48.67
46954;BME280;32707;43.886;12.874;2022-07-22T04:52:16;101380.13;;;23.85;48.34
46954;BME280;32707;43.886;12.874;2022-07-22T04:54:41;101381.03;;;23.97;48.20
46954;BME280;32707;43.886;12.874;2022-07-22T04:57:07;101375.75;;;24.06;48.16
46954;BME280;32707;43.886;12.874;2022-07-22T04:59:32;101377.03;;;24.12;48.06
46954;BME280;32707;43.886;12.874;2022-07-22T05:01:58;101381.16;;;24.18;48.01
46954;BME280;32707;43.886;12.874;2022-07-22T05:04:23;101381.22;;;24.33;47.63
46954;BME280;32707;43.886;12.874;2022-07-22T05:06:49;101376.34;;;24.44;47.51
46954;BME280;32707;43.886;12.874;2022-07-22T05:09:14;101374.38;;;24.55;47.18
46954;BME280;32707;43.886;12.874;2022-07-22T05:11:40;101377.22;;;24.62;47.18
46954;BME280;32707;43.886;12.874;2022-07-22T05:14:06;101372.75;;;24.61;47.21
46954;BME280;32707;43.886;12.874;2022-07-22T05:16:31;101377.66;;;24.57;47.19
46954;BME280;32707;43.886;12.874;2022-07-22T05:18:57;101384.19;;;24.61;47.16
46954;BME280;32707;43.886;12.874;2022-07-22T05:21:22;101383.38;;;24.61;47.29
46954;BME280;32707;43.886;12.874;2022-07-22T05:23:48;101378.53;;;24.76;47.09
46954;BME280;32707;43.886;12.874;2022-07-22T05:26:13;101387.13;;;24.97;46.68
46954;BME280;32707;43.886;12.874;2022-07-22T05:28:39;101381.44;;;25.19;46.44
46954;BME280;32707;43.886;12.874;2022-07-22T05:31:04;101375.72;;;25.37;46.29
46954;BME280;32707;43.886;12.874;2022-07-22T05:33:30;101380.22;;;25.52;45.98
46954;BME280;32707;43.886;12.874;2022-07-22T05:35:55;101380.59;;;25.65;45.88
46954;BME280;32707;43.886;12.874;2022-07-22T05:38:21;101385.91;;;25.77;45.81
46954;BME280;32707;43.886;12.874;2022-07-22T05:40:49;101383.84;;;25.89;45.56
46954;BME280;32707;43.886;12.874;2022-07-22T05:43:14;101380.56;;;25.97;45.23
46954;BME280;32707;43.886;12.874;2022-07-22T05:45:40;101388.72;;;26.13;45.11
46954;BME280;32707;43.886;12.874;2022-07-22T05:48:06;101383.72;;;26.32;45.14
46954;BME280;32707;43.886;12.874;2022-07-22T05:50:31;101382.00;;;26.49;44.69
46954;BME280;32707;43.886;12.874;2022-07-22T05:52:57;101384.38;;;26.68;44.32
46954;BME280;32707;43.886;12.874;2022-07-22T05:55:25;101381.41;;;26.86;44.08
46954;BME280;32707;43.886;12.874;2022-07-22T05:57:51;101387.41;;;27.03;43.66
46954;BME280;32707;43.886;12.874;2022-07-22T06:00:16;101385.22;;;27.21;43.36
46954;BME280;32707;43.886;12.874;2022-07-22T06:02:42;101382.28;;;27.36;43.21
46954;BME280;32707;43.886;12.874;2022-07-22T06:05:08;101388.75;;;27.47;43.13
46954;BME280;32707;43.886;12.874;2022-07-22T06:07:33;101388.69;;;27.54;42.95
46954;BME280;32707;43.886;12.874;2022-07-22T06:09:59;101379.69;;;27.52;42.80
46954;BME280;32707;43.886;12.874;2022-07-22T06:12:24;101386.56;;;27.62;42.70
46954;BME280;32707;43.886;12.874;2022-07-22T06:14:50;101388.53;;;27.68;42.61
46954;BME280;32707;43.886;12.874;2022-07-22T06:17:15;101383.84;;;27.85;42.64
46954;BME280;32707;43.886;12.874;2022-07-22T06:19:41;101387.69;;;28.09;42.04
46954;BME280;32707;43.886;12.874;2022-07-22T06:22:06;101386.25;;;28.28;41.84
46954;BME280;32707;43.886;12.874;2022-07-22T06:24:32;101397.56;;;28.43;41.60
46954;BME280;32707;43.886;12.874;2022-07-22T06:26:57;101401.50;;;28.60;41.43
46954;BME280;32707;43.886;12.874;2022-07-22T06:29:23;101396.72;;;28.77;41.20
46954;BME280;32707;43.886;12.874;2022-07-22T06:31:49;101402.22;;;28.95;41.03
46954;BME280;32707;43.886;12.874;2022-07-22T06:34:14;101393.72;;;29.11;40.87
46954;BME280;32707;43.886;12.874;2022-07-22T06:36:40;101391.13;;;29.20;40.69
46954;BME280;32707;43.886;12.874;2022-07-22T06:39:05;101402.13;;;29.29;40.49
46954;BME280;32707;43.886;12.874;2022-07-22T06:41:31;101399.13;;;29.36;40.50
46954;BME280;32707;43.886;12.874;2022-07-22T06:43:57;101404.63;;;29.51;40.21
46954;BME280;32707;43.886;12.874;2022-07-22T06:46:22;101398.22;;;29.63;40.07
46954;BME280;32707;43.886;12.874;2022-07-22T06:48:48;101402.16;;;29.73;39.97
46954;BME280;32707;43.886;12.874;2022-07-22T06:51:13;101407.03;;;29.99;39.61
46954;BME280;32707;43.886;12.874;2022-07-22T06:53:40;101402.50;;;30.22;39.07
46954;BME280;32707;43.886;12.874;2022-07-22T06:56:06;101401.41;;;30.36;38.91
46954;BME280;32707;43.886;12.874;2022-07-22T06:58:32;101399.91;;;30.48;38.66
46954;BME280;32707;43.886;12.874;2022-07-22T07:00:58;101399.81;;;30.71;38.60
46954;BME280;32707;43.886;12.874;2022-07-22T07:03:24;101397.72;;;30.92;38.35
46954;BME280;32707;43.886;12.874;2022-07-22T07:05:52;101399.00;;;31.07;38.26
46954;BME280;32707;43.886;12.874;2022-07-22T07:08:17;101400.53;;;31.28;37.88
46954;BME280;32707;43.886;12.874;2022-07-22T07:10:43;101407.78;;;31.53;37.27
46954;BME280;32707;43.886;12.874;2022-07-22T07:13:10;101399.34;;;31.75;36.87
46954;BME280;32707;43.886;12.874;2022-07-22T07:15:36;101396.88;;;31.90;36.90
46954;BME280;32707;43.886;12.874;2022-07-22T07:18:02;101400.47;;;32.10;36.32
46954;BME280;32707;43.886;12.874;2022-07-22T07:20:28;101401.09;;;32.31;36.11
46954;BME280;32707;43.886;12.874;2022-07-22T07:22:54;101393.16;;;32.48;35.66
46954;BME280;32707;43.886;12.874;2022-07-22T07:25:20;101390.56;;;32.66;35.35
46954;BME280;32707;43.886;12.874;2022-07-22T07:27:46;101393.69;;;32.85;35.10
46954;BME280;32707;43.886;12.874;2022-07-22T07:30:14;101398.56;;;33.01;34.62
46954;BME280;32707;43.886;12.874;2022-07-22T07:32:40;101394.75;;;33.17;34.12
46954;BME280;32707;43.886;12.874;2022-07-22T07:35:06;101392.16;;;33.31;33.70
46954;BME280;32707;43.886;12.874;2022-07-22T07:37:32;101396.56;;;33.49;33.60
46954;BME280;32707;43.886;12.874;2022-07-22T07:39:57;101396.63;;;33.71;33.27
46954;BME280;32707;43.886;12.874;2022-07-22T07:42:24;101388.50;;;33.79;33.01
46954;BME280;32707;43.886;12.874;2022-07-22T07:44:49;101394.03;;;33.86;32.79
46954;BME280;32707;43.886;12.874;2022-07-22T07:47:15;101394.94;;;33.96;32.79
46954;BME280;32707;43.886;12.874;2022-07-22T07:49:44;101391.69;;;34.16;32.29
46954;BME280;32707;43.886;12.874;2022-07-22T07:52:13;101387.53;;;34.39;32.06
46954;BME280;32707;43.886;12.874;2022-07-22T07:54:39;101394.47;;;34.63;31.44
46954;BME280;32707;43.886;12.874;2022-07-22T07:57:06;101396.19;;;34.83;31.22
46954;BME280;32707;43.886;12.874;2022-07-22T07:59:31;101402.25;;;35.07;31.33
46954;BME280;32707;43.886;12.874;2022-07-22T08:01:57;101406.72;;;35.30;30.43
46954;BME280;32707;43.886;12.874;2022-07-22T08:04:22;101404.66;;;35.49;30.61
46954;BME280;32707;43.886;12.874;2022-07-22T08:06:48;101402.16;;;35.79;30.27
46954;BME280;32707;43.886;12.874;2022-07-22T08:09:14;101405.53;;;36.14;30.16
46954;BME280;32707;43.886;12.874;2022-07-22T08:11:40;101406.03;;;36.41;30.35
46954;BME280;32707;43.886;12.874;2022-07-22T08:14:05;101414.06;;;36.64;30.58
46954;BME280;32707;43.886;12.874;2022-07-22T08:16:31;101410.06;;;37.04;30.50
46954;BME280;32707;43.886;12.874;2022-07-22T08:18:56;101411.94;;;37.50;30.51
46954;BME280;32707;43.886;12.874;2022-07-22T08:21:22;101406.03;;;37.83;30.43
46954;BME280;32707;43.886;12.874;2022-07-22T08:23:47;101410.19;;;38.30;30.72
46954;BME280;32707;43.886;12.874;2022-07-22T08:26:13;101402.84;;;38.80;30.15
46954;BME280;32707;43.886;12.874;2022-07-22T08:28:38;101407.53;;;39.22;30.33
46954;BME280;32707;43.886;12.874;2022-07-22T08:31:04;101406.63;;;39.51;29.85
46954;BME280;32707;43.886;12.874;2022-07-22T08:33:30;101413.97;;;39.61;30.03
46954;BME280;32707;43.886;12.874;2022-07-22T08:35:55;101408.13;;;39.82;30.05
46954;BME280;32707;43.886;12.874;2022-07-22T08:38:21;101410.47;;;39.98;29.99
46954;BME280;32707;43.886;12.874;2022-07-22T08:40:46;101407.75;;;40.15;29.57
46954;BME280;32707;43.886;12.874;2022-07-22T08:43:13;101408.84;;;40.44;29.10
46954;BME280;32707;43.886;12.874;2022-07-22T08:45:40;101411.41;;;40.89;28.69
46954;BME280;32707;43.886;12.874;2022-07-22T08:48:05;101417.59;;;41.28;28.36
46954;BME280;32707;43.886;12.874;2022-07-22T08:50:31;101411.00;;;41.45;27.95
46954;BME280;32707;43.886;12.874;2022-07-22T08:52:57;101417.75;;;41.56;27.76
46954;BME280;32707;43.886;12.874;2022-07-22T08:55:23;101414.59;;;41.66;27.80
46954;BME280;32707;43.886;12.874;2022-07-22T08:57:49;101417.75;;;41.56;27.32
46954;BME280;32707;43.886;12.874;2022-07-22T09:00:19;101411.53;;;41.43;27.33
46954;BME280;32707;43.886;12.874;2022-07-22T09:02:45;101416.59;;;41.48;27.33
46954;BME280;32707;43.886;12.874;2022-07-22T09:05:13;101418.06;;;41.64;26.88
46954;BME280;32707;43.886;12.874;2022-07-22T09:07:41;101423.22;;;41.81;27.01
46954;BME280;32707;43.886;12.874;2022-07-22T09:10:12;101427.56;;;42.02;26.54
46954;BME280;32707;43.886;12.874;2022-07-22T09:12:58;101417.72;;;42.05;26.71
46954;BME280;32707;43.886;12.874;2022-07-22T09:15:29;101416.66;;;42.20;26.67
46954;BME280;32707;43.886;12.874;2022-07-22T09:17:56;101429.28;;;42.31;26.33
46954;BME280;32707;43.886;12.874;2022-07-22T09:20:22;101425.88;;;42.56;26.00
46954;BME280;32707;43.886;12.874;2022-07-22T09:22:49;101425.88;;;42.78;25.47
46954;BME280;32707;43.886;12.874;2022-07-22T09:25:25;101416.50;;;42.97;25.08
46954;BME280;32707;43.886;12.874;2022-07-22T09:27:56;101419.72;;;43.10;24.72
46954;BME280;32707;43.886;12.874;2022-07-22T09:30:26;101420.25;;;42.86;24.48
46954;BME280;32707;43.886;12.874;2022-07-22T09:32:53;101417.06;;;42.78;24.40
46954;BME280;32707;43.886;12.874;2022-07-22T09:35:23;101425.88;;;42.84;23.98
46954;BME280;32707;43.886;12.874;2022-07-22T09:40:24;101409.03;;;43.01;23.44
46954;BME280;32707;43.886;12.874;2022-07-22T09:42:52;101417.03;;;43.18;23.00
46954;BME280;32707;43.886;12.874;2022-07-22T09:45:20;101415.69;;;43.19;23.00
46954;BME280;32707;43.886;12.874;2022-07-22T09:47:46;101420.25;;;43.08;22.97
46954;BME280;32707;43.886;12.874;2022-07-22T09:50:41;101408.19;;;43.18;22.79
46954;BME280;32707;43.886;12.874;2022-07-22T09:53:06;101408.72;;;43.33;22.30
46954;BME280;32707;43.886;12.874;2022-07-22T09:55:32;101421.78;;;43.43;22.22
46954;BME280;32707;43.886;12.874;2022-07-22T09:57:59;101414.28;;;43.54;21.93
46954;BME280;32707;43.886;12.874;2022-07-22T10:00:26;101407.81;;;43.66;21.35
46954;BME280;32707;43.886;12.874;2022-07-22T10:05:23;101398.09;;;43.83;20.84
46954;BME280;32707;43.886;12.874;2022-07-22T10:07:50;101393.53;;;43.87;20.66
46954;BME280;32707;43.886;12.874;2022-07-22T10:10:19;101392.91;;;44.06;20.46
46954;BME280;32707;43.886;12.874;2022-07-22T10:12:48;101402.78;;;44.14;20.06
46954;BME280;32707;43.886;12.874;2022-07-22T10:15:15;101401.72;;;44.12;19.90
46954;BME280;32707;43.886;12.874;2022-07-22T10:17:42;101391.00;;;44.09;19.83
46954;BME280;32707;43.886;12.874;2022-07-22T10:20:09;101400.81;;;44.28;19.09
46954;BME280;32707;43.886;12.874;2022-07-22T10:25:10;101389.63;;;44.57;18.56
46954;BME280;32707;43.886;12.874;2022-07-22T10:30:13;101393.91;;;44.86;17.88
46954;BME280;32707;43.886;12.874;2022-07-22T10:32:39;101397.41;;;44.90;17.71
46954;BME280;32707;43.886;12.874;2022-07-22T10:37:36;101390.72;;;44.84;17.21
46954;BME280;32707;43.886;12.874;2022-07-22T10:45:24;101378.59;;;44.93;16.65
46954;BME280;32707;43.886;12.874;2022-07-22T10:47:53;101383.47;;;45.15;16.27
46954;BME280;32707;43.886;12.874;2022-07-22T10:53:05;101374.06;;;45.42;16.06
46954;BME280;32707;43.886;12.874;2022-07-22T10:55:30;101377.19;;;45.49;15.81
46954;BME280;32707;43.886;12.874;2022-07-22T10:57:56;101377.78;;;45.42;15.89
46954;BME280;32707;43.886;12.874;2022-07-22T11:00:22;101383.88;;;45.50;15.67
46954;BME280;32707;43.886;12.874;2022-07-22T11:02:50;101368.66;;;45.65;15.26
46954;BME280;32707;43.886;12.874;2022-07-22T11:05:28;101374.13;;;45.79;15.27
46954;BME280;32707;43.886;12.874;2022-07-22T11:07:57;101386.50;;;45.78;15.07
46954;BME280;32707;43.886;12.874;2022-07-22T11:10:22;101377.47;;;45.70;14.76
46954;BME280;32707;43.886;12.874;2022-07-22T11:12:49;101376.50;;;45.81;14.89
46954;BME280;32707;43.886;12.874;2022-07-22T11:15:14;101381.06;;;45.82;14.87
46954;BME280;32707;43.886;12.874;2022-07-22T11:17:49;101374.19;;;45.93;14.75
46954;BME280;32707;43.886;12.874;2022-07-22T11:20:14;101377.28;;;46.01;14.41
46954;BME280;32707;43.886;12.874;2022-07-22T11:22:46;101361.50;;;45.98;14.74
46954;BME280;32707;43.886;12.874;2022-07-22T11:25:13;101360.19;;;45.93;14.61
46954;BME280;32707;43.886;12.874;2022-07-22T11:27:51;101360.84;;;45.67;14.36
46954;BME280;32707;43.886;12.874;2022-07-22T11:30:25;101360.06;;;45.42;14.76
46954;BME280;32707;43.886;12.874;2022-07-22T11:32:50;101370.94;;;45.34;14.66
46954;BME280;32707;43.886;12.874;2022-07-22T11:35:16;101365.66;;;45.21;14.70
46954;BME280;32707;43.886;12.874;2022-07-22T11:37:42;101364.31;;;45.22;14.38
46954;BME280;32707;43.886;12.874;2022-07-22T11:40:09;101353.22;;;45.34;14.38
46954;BME280;32707;43.886;12.874;2022-07-22T11:42:35;101356.19;;;45.28;14.37
46954;BME280;32707;43.886;12.874;2022-07-22T11:45:01;101363.03;;;45.42;14.14
46954;BME280;32707;43.886;12.874;2022-07-22T11:47:27;101361.72;;;45.62;14.30
46954;BME280;32707;43.886;12.874;2022-07-22T11:49:53;101355.03;;;45.81;13.79
46954;BME280;32707;43.886;12.874;2022-07-22T11:52:18;101346.72;;;45.98;13.82
46954;BME280;32707;43.886;12.874;2022-07-22T11:54:45;101347.59;;;45.93;13.72
46954;BME280;32707;43.886;12.874;2022-07-22T11:57:12;101339.50;;;45.74;13.57
46954;BME280;32707;43.886;12.874;2022-07-22T11:59:39;101342.00;;;45.70;13.90
46954;BME280;32707;43.886;12.874;2022-07-22T12:02:05;101337.06;;;45.78;13.68
46954;BME280;32707;43.886;12.874;2022-07-22T12:04:32;101332.69;;;45.42;14.13
46954;BME280;32707;43.886;12.874;2022-07-22T12:07:02;101327.75;;;44.76;14.35
46954;BME280;32707;43.886;12.874;2022-07-22T12:09:35;101325.94;;;44.37;14.64
46954;BME280;32707;43.886;12.874;2022-07-22T12:12:02;101330.34;;;44.24;14.62
46954;BME280;32707;43.886;12.874;2022-07-22T12:14:31;101323.34;;;43.86;15.14
46954;BME280;32707;43.886;12.874;2022-07-22T12:19:25;101329.28;;;43.10;15.56
46954;BME280;32707;43.886;12.874;2022-07-22T12:22:04;101331.75;;;42.50;15.94
46954;BME280;32707;43.886;12.874;2022-07-22T12:24:44;101328.16;;;41.95;16.24
46954;BME280;32707;43.886;12.874;2022-07-22T12:27:13;101324.09;;;41.70;16.35
46954;BME280;32707;43.886;12.874;2022-07-22T12:32:10;101313.84;;;41.48;16.39
46954;BME280;32707;43.886;12.874;2022-07-22T12:34:48;101319.22;;;41.07;16.61
46954;BME280;32707;43.886;12.874;2022-07-22T12:37:24;101322.75;;;40.73;16.73
46954;BME280;32707;43.886;12.874;2022-07-22T12:42:43;101303.56;;;40.14;17.15
46954;BME280;32707;43.886;12.874;2022-07-22T12:45:14;101306.78;;;39.90;17.42
46954;BME280;32707;43.886;12.874;2022-07-22T12:47:42;101308.59;;;39.88;17.17
46954;BME280;32707;43.886;12.874;2022-07-22T12:52:41;101309.22;;;39.51;17.69
46954;BME280;32707;43.886;12.874;2022-07-22T12:55:07;101311.91;;;39.34;17.76
46954;BME280;32707;43.886;12.874;2022-07-22T12:57:32;101310.41;;;39.18;17.84
46954;BME280;32707;43.886;12.874;2022-07-22T12:59:58;101311.91;;;39.13;17.98
46954;BME280;32707;43.886;12.874;2022-07-22T13:02:24;101299.84;;;39.26;17.73
46954;BME280;32707;43.886;12.874;2022-07-22T13:04:49;101303.94;;;39.34;17.82
46954;BME280;32707;43.886;12.874;2022-07-22T13:07:15;101287.38;;;39.46;17.51